createdAt,value
2023-10-31T00:02:18.906Z,65.45
2023-10-31T00:04:46.345Z,65.37
2023-10-31T00:07:13.776Z,65.47
2023-10-31T00:09:41.269Z,65.46
2023-10-31T00:12:08.913Z,65.36
2023-10-31T00:14:36.513Z,65.70
2023-10-31T00:17:04.052Z,65.67
2023-10-31T00:19:31.501Z,65.76
2023-10-31T00:21:58.964Z,65.78
2023-10-31T00:24:27.284Z,65.96
2023-10-31T00:26:54.641Z,66.09
2023-10-31T00:29:22.090Z,66.12
2023-10-31T00:31:49.572Z,66.33
2023-10-31T00:34:17.004Z,66.47
2023-10-31T00:36:44.475Z,66.47
2023-10-31T00:39:11.925Z,66.31
2023-10-31T00:41:40.555Z,66.58
2023-10-31T00:44:07.956Z,66.49
2023-10-31T00:46:35.525Z,66.62
2023-10-31T00:49:03.202Z,66.67
2023-10-31T00:51:30.583Z,66.62
2023-10-31T00:53:58.066Z,66.70
2023-10-31T00:56:25.460Z,66.82
2023-10-31T00:58:52.858Z,66.82
2023-10-31T01:01:20.316Z,66.77
2023-10-31T01:03:47.804Z,66.90
2023-10-31T01:06:15.187Z,67.08
2023-10-31T01:08:42.703Z,66.95
2023-10-31T01:11:10.924Z,66.84
2023-10-31T01:13:39.011Z,66.68
2023-10-31T01:16:06.734Z,66.73
2023-10-31T01:18:34.112Z,66.69
2023-10-31T01:21:01.499Z,66.67
2023-10-31T01:23:28.927Z,66.85
2023-10-31T01:25:56.347Z,66.82
2023-10-31T01:28:23.726Z,67.08
2023-10-31T01:30:51.136Z,67.23
2023-10-31T01:33:18.964Z,67.51
2023-10-31T01:35:46.643Z,67.62
2023-10-31T01:38:14.205Z,67.56
2023-10-31T01:40:41.798Z,67.65
2023-10-31T01:43:09.191Z,67.71
2023-10-31T01:45:36.918Z,67.66
2023-10-31T01:48:04.422Z,67.54
2023-10-31T01:50:33.415Z,67.34
2023-10-31T01:53:02.022Z,67.47
2023-10-31T01:55:30.749Z,67.61
2023-10-31T01:57:58.148Z,67.58
2023-10-31T02:00:25.616Z,67.69
2023-10-31T02:02:53.542Z,67.75
2023-10-31T02:05:21.008Z,67.93
2023-10-31T02:07:49.824Z,68.07
2023-10-31T02:10:17.450Z,68.18
2023-10-31T02:12:44.877Z,68.12
2023-10-31T02:15:12.862Z,68.17
2023-10-31T02:17:40.582Z,68.34
2023-10-31T02:20:08.593Z,68.27
2023-10-31T02:22:36.031Z,68.13
2023-10-31T02:25:04.687Z,68.15
2023-10-31T02:27:32.622Z,68.22
2023-10-31T02:30:00.187Z,68.24
2023-10-31T02:32:27.840Z,68.28
2023-10-31T02:34:55.959Z,68.41
2023-10-31T02:37:23.335Z,68.51
2023-10-31T02:39:50.718Z,68.75
2023-10-31T02:42:18.094Z,68.81
2023-10-31T02:44:45.584Z,69.13
2023-10-31T02:47:12.979Z,69.31
2023-10-31T02:49:40.442Z,69.31
2023-10-31T02:52:07.892Z,69.29
2023-10-31T02:54:35.459Z,69.35
2023-10-31T02:57:02.912Z,69.44
2023-10-31T02:59:30.311Z,69.35
2023-10-31T03:01:58.170Z,69.56
2023-10-31T03:04:25.558Z,69.46
2023-10-31T03:06:53.132Z,69.60
2023-10-31T03:09:20.568Z,69.72
2023-10-31T03:11:47.972Z,69.74
2023-10-31T03:14:15.441Z,69.98
2023-10-31T03:16:42.950Z,69.92
2023-10-31T03:19:10.576Z,69.89
2023-10-31T03:21:38.275Z,69.93
2023-10-31T03:24:06.020Z,69.96
2023-10-31T03:26:33.381Z,70.08
2023-10-31T03:29:00.824Z,70.22
2023-10-31T03:31:28.259Z,70.33
2023-10-31T03:33:55.720Z,70.41
2023-10-31T03:36:23.100Z,70.61
2023-10-31T03:38:50.466Z,70.43
2023-10-31T03:41:19.062Z,70.29
2023-10-31T03:43:46.516Z,70.33
2023-10-31T03:46:13.932Z,70.49
2023-10-31T03:48:41.352Z,70.58
2023-10-31T03:51:08.867Z,70.54
2023-10-31T03:53:36.311Z,70.72
2023-10-31T03:56:04.038Z,70.70
2023-10-31T03:58:31.509Z,70.81
2023-10-31T04:00:59.533Z,70.75
2023-10-31T04:03:27.679Z,70.43
2023-10-31T04:05:55.576Z,70.50
2023-10-31T04:08:22.920Z,70.61
2023-10-31T04:10:50.619Z,70.69
2023-10-31T04:13:18.064Z,70.63
2023-10-31T04:15:45.420Z,70.86
2023-10-31T04:18:12.855Z,70.85
2023-10-31T04:20:40.311Z,71.02
2023-10-31T04:23:07.761Z,70.67
2023-10-31T04:25:35.383Z,70.61
2023-10-31T04:28:02.815Z,70.53
2023-10-31T04:30:30.379Z,70.69
2023-10-31T04:32:57.766Z,70.66
2023-10-31T04:35:25.225Z,70.59
2023-10-31T04:37:52.708Z,70.57
2023-10-31T04:40:20.060Z,70.54
2023-10-31T04:43:38.540Z,70.17
2023-10-31T04:46:05.981Z,69.76
2023-10-31T04:48:33.362Z,69.91
2023-10-31T04:51:00.820Z,69.79
2023-10-31T04:53:28.220Z,69.61
2023-10-31T04:55:55.843Z,69.62
2023-10-31T04:58:23.246Z,69.57
2023-10-31T05:00:50.629Z,69.64
2023-10-31T05:03:18.736Z,69.56
2023-10-31T05:05:46.351Z,69.05
2023-10-31T05:08:13.822Z,68.80
2023-10-31T05:10:41.610Z,68.92
2023-10-31T05:13:09.035Z,68.69
2023-10-31T05:15:36.407Z,68.59
2023-10-31T05:18:03.942Z,68.73
2023-10-31T05:20:31.487Z,68.68
2023-10-31T05:22:58.909Z,68.61
2023-10-31T05:25:26.347Z,68.68
2023-10-31T05:27:53.786Z,68.76
2023-10-31T05:30:21.226Z,68.54
2023-10-31T05:32:48.598Z,68.55
2023-10-31T05:35:16.232Z,68.32
2023-10-31T05:37:44.083Z,68.36
2023-10-31T05:40:12.019Z,68.31
2023-10-31T05:42:40.300Z,68.09
2023-10-31T05:45:08.051Z,68.12
2023-10-31T05:47:35.477Z,68.11
2023-10-31T05:50:03.089Z,68.00
2023-10-31T05:52:30.972Z,68.00
2023-10-31T05:54:58.800Z,68.10
2023-10-31T05:57:26.200Z,67.90
2023-10-31T05:59:53.773Z,67.87
2023-10-31T06:02:21.474Z,67.84
2023-10-31T06:04:49.021Z,67.78
2023-10-31T06:07:16.403Z,67.80
2023-10-31T06:09:43.772Z,67.97
2023-10-31T06:12:11.194Z,67.51
2023-10-31T06:14:38.635Z,67.24
2023-10-31T06:17:06.038Z,67.19
2023-10-31T06:19:37.723Z,67.18
2023-10-31T06:22:05.422Z,67.40
2023-10-31T06:24:32.893Z,67.28
2023-10-31T06:27:00.441Z,67.35
2023-10-31T06:29:43.561Z,67.21
2023-10-31T06:32:15.455Z,67.27
2023-10-31T06:34:42.879Z,67.28
2023-10-31T06:37:10.480Z,67.41
2023-10-31T06:39:38.086Z,67.50
2023-10-31T06:42:06.060Z,67.73
2023-10-31T06:44:33.489Z,67.79
2023-10-31T06:47:01.186Z,67.76
2023-10-31T06:49:28.718Z,67.78
2023-10-31T06:51:56.180Z,67.65
2023-10-31T06:54:23.641Z,67.21
2023-10-31T06:56:51.087Z,67.09
2023-10-31T06:59:18.641Z,66.72
2023-10-31T07:01:47.811Z,66.57
2023-10-31T07:04:15.675Z,66.42
2023-10-31T07:06:43.168Z,66.42
2023-10-31T07:09:11.163Z,66.25
2023-10-31T07:11:38.780Z,66.01
2023-10-31T07:14:06.274Z,65.78
2023-10-31T07:16:33.850Z,65.75
2023-10-31T07:19:01.286Z,65.53
2023-10-31T07:21:28.706Z,65.04
2023-10-31T07:23:56.743Z,64.62
2023-10-31T07:26:24.733Z,64.35
2023-10-31T07:28:52.267Z,64.26
2023-10-31T07:31:19.825Z,64.35
2023-10-31T07:33:47.288Z,64.40
2023-10-31T07:36:14.783Z,64.25
2023-10-31T07:38:42.240Z,64.31
2023-10-31T07:41:09.700Z,64.39
2023-10-31T07:43:38.880Z,64.33
2023-10-31T07:46:06.952Z,64.16
2023-10-31T07:48:34.490Z,63.90
2023-10-31T07:51:01.929Z,63.88
2023-10-31T07:53:29.455Z,63.70
2023-10-31T07:55:56.999Z,63.57
2023-10-31T07:58:24.507Z,63.09
2023-10-31T08:00:52.009Z,63.27
2023-10-31T08:03:19.637Z,62.77
2023-10-31T08:05:47.204Z,62.90
2023-10-31T08:08:14.772Z,62.91
2023-10-31T08:10:42.332Z,62.64
2023-10-31T08:13:09.873Z,62.63
2023-10-31T08:15:37.944Z,62.27
2023-10-31T08:18:05.479Z,61.64
2023-10-31T08:20:35.066Z,61.73
2023-10-31T08:23:03.378Z,61.68
2023-10-31T08:25:31.130Z,61.48
2023-10-31T08:27:58.735Z,61.18
2023-10-31T08:30:26.315Z,61.12
2023-10-31T08:32:55.292Z,60.91
2023-10-31T08:35:23.593Z,59.98
2023-10-31T08:37:51.316Z,59.75
2023-10-31T08:40:18.780Z,59.26
2023-10-31T08:42:46.201Z,59.04
2023-10-31T08:45:13.679Z,58.65
2023-10-31T08:47:41.190Z,58.16
2023-10-31T08:50:10.026Z,57.52
2023-10-31T08:52:37.491Z,57.15
2023-10-31T08:55:05.428Z,56.75
2023-10-31T08:57:34.830Z,55.27
2023-10-31T09:00:02.314Z,54.41
2023-10-31T09:02:29.830Z,53.72
2023-10-31T09:04:57.332Z,53.52
2023-10-31T09:07:24.928Z,52.90
2023-10-31T09:09:52.345Z,52.23
2023-10-31T09:12:19.824Z,51.40
2023-10-31T09:14:47.526Z,50.59
2023-10-31T09:17:15.024Z,49.77
2023-10-31T09:19:42.537Z,48.85
2023-10-31T09:22:10.141Z,47.61
2023-10-31T09:24:37.613Z,46.73
2023-10-31T09:27:05.064Z,46.32
2023-10-31T09:29:32.790Z,45.92
2023-10-31T09:32:00.715Z,45.66
2023-10-31T09:34:28.190Z,45.71
2023-10-31T09:36:55.778Z,44.11
2023-10-31T09:39:24.405Z,43.09
2023-10-31T09:41:54.750Z,42.52
2023-10-31T09:44:22.822Z,41.74
2023-10-31T09:46:52.634Z,41.17
2023-10-31T09:49:20.565Z,40.04
2023-10-31T09:51:49.847Z,39.03
2023-10-31T09:54:18.208Z,38.06
2023-10-31T09:56:45.870Z,37.17
2023-10-31T09:59:17.292Z,36.44
2023-10-31T10:01:45.894Z,36.55
2023-10-31T10:04:13.607Z,36.50
2023-10-31T10:06:50.951Z,35.98
2023-10-31T10:09:18.729Z,36.00
2023-10-31T10:11:46.446Z,35.70
2023-10-31T10:14:14.000Z,34.86
2023-10-31T10:16:42.234Z,34.03
2023-10-31T10:19:23.038Z,34.36
2023-10-31T10:21:55.817Z,34.61
2023-10-31T10:24:24.460Z,33.65
2023-10-31T10:26:53.082Z,33.43
2023-10-31T10:29:20.963Z,33.61
2023-10-31T10:31:49.109Z,33.37
2023-10-31T10:34:17.526Z,32.81
2023-10-31T10:36:54.313Z,31.94
2023-10-31T10:39:23.160Z,31.61
2023-10-31T10:42:00.960Z,31.32
2023-10-31T10:44:34.515Z,31.45
2023-10-31T10:47:04.277Z,31.60
2023-10-31T10:49:35.122Z,31.74
2023-10-31T10:52:16.357Z,31.52
2023-10-31T10:55:02.762Z,31.33
2023-10-31T10:57:36.118Z,30.79
2023-10-31T11:00:14.259Z,30.69
2023-10-31T11:02:45.083Z,30.66
2023-10-31T11:05:12.689Z,30.84
2023-10-31T11:07:41.391Z,30.82
2023-10-31T11:10:09.928Z,30.76
2023-10-31T11:12:37.874Z,30.60
2023-10-31T11:15:05.841Z,30.55
2023-10-31T11:17:36.613Z,30.21
2023-10-31T11:20:04.887Z,31.02
2023-10-31T11:22:45.129Z,30.77
2023-10-31T11:25:29.525Z,30.34
2023-10-31T11:28:27.214Z,30.39
2023-10-31T11:31:05.358Z,30.43
2023-10-31T11:33:34.288Z,30.37
2023-10-31T11:36:03.034Z,30.60
2023-10-31T11:38:36.152Z,30.54
2023-10-31T11:41:04.627Z,30.44
2023-10-31T11:43:41.155Z,30.52
2023-10-31T11:46:22.237Z,30.35
2023-10-31T11:48:52.906Z,29.70
2023-10-31T11:51:20.714Z,29.42
2023-10-31T11:53:52.306Z,29.70
2023-10-31T11:56:21.378Z,30.23
2023-10-31T11:59:05.027Z,30.48
2023-10-31T12:01:32.641Z,29.99
2023-10-31T12:04:03.273Z,30.08
2023-10-31T12:06:32.301Z,29.88
2023-10-31T12:09:06.583Z,30.06
2023-10-31T12:11:34.036Z,29.95
2023-10-31T12:14:03.830Z,29.76
2023-10-31T12:16:32.298Z,30.22
2023-10-31T12:19:04.395Z,30.25
2023-10-31T12:21:41.209Z,30.61
2023-10-31T12:24:12.409Z,30.66
2023-10-31T12:26:40.099Z,30.88
2023-10-31T12:29:14.372Z,30.83
2023-10-31T12:31:50.653Z,30.60
2023-10-31T12:34:19.087Z,30.97
2023-10-31T12:36:53.528Z,31.50
2023-10-31T12:39:27.534Z,31.73
2023-10-31T12:41:55.534Z,31.77
2023-10-31T12:44:28.277Z,32.09
2023-10-31T12:46:57.363Z,32.60
2023-10-31T12:49:25.592Z,33.25
2023-10-31T12:52:01.183Z,34.47
2023-10-31T12:54:33.094Z,35.97
2023-10-31T12:57:05.827Z,37.35
2023-10-31T12:59:33.613Z,38.27
2023-10-31T13:02:01.338Z,38.96
2023-10-31T13:04:29.898Z,39.56
2023-10-31T13:07:02.646Z,40.15
2023-10-31T13:12:05.329Z,41.00
2023-10-31T13:14:36.945Z,41.65
2023-10-31T13:17:04.755Z,41.96
2023-10-31T13:19:32.806Z,41.98
2023-10-31T13:22:02.783Z,41.85
2023-10-31T13:24:30.524Z,41.76
2023-10-31T13:26:58.363Z,41.85
2023-10-31T13:29:28.947Z,42.04
2023-10-31T13:31:56.735Z,42.61
2023-10-31T13:34:24.784Z,43.29
2023-10-31T13:36:55.266Z,44.26
2023-10-31T13:39:23.319Z,45.19
2023-10-31T13:41:52.160Z,45.70
2023-10-31T13:44:19.674Z,46.68
2023-10-31T13:46:47.408Z,47.40
2023-10-31T13:49:15.659Z,48.05
2023-10-31T13:51:43.179Z,48.63
2023-10-31T13:54:10.680Z,49.29
2023-10-31T13:56:38.228Z,49.84
2023-10-31T13:59:06.936Z,50.17
2023-10-31T14:01:34.543Z,50.53
2023-10-31T14:04:02.520Z,51.12
2023-10-31T14:06:33.657Z,51.17
2023-10-31T14:09:01.555Z,51.39
2023-10-31T14:11:30.055Z,51.72
2023-10-31T14:14:01.347Z,51.95
2023-10-31T14:16:28.836Z,52.08
2023-10-31T14:18:57.005Z,52.39
2023-10-31T14:21:29.196Z,52.61
2023-10-31T14:24:02.018Z,52.97
2023-10-31T14:26:37.646Z,53.22
2023-10-31T14:29:05.261Z,53.50
2023-10-31T14:31:32.840Z,53.49
2023-10-31T14:34:00.507Z,53.72
2023-10-31T14:36:28.072Z,53.78
2023-10-31T14:38:55.510Z,53.95
2023-10-31T14:41:23.116Z,54.25
2023-10-31T14:43:52.955Z,54.47
2023-10-31T14:46:20.393Z,54.64
2023-10-31T14:48:49.436Z,54.72
2023-10-31T14:51:17.827Z,54.60
2023-10-31T14:53:48.118Z,54.68
2023-10-31T14:56:18.040Z,54.80
2023-10-31T14:58:46.755Z,54.88
2023-10-31T15:01:14.756Z,54.96
2023-10-31T15:03:42.687Z,55.08
2023-10-31T15:06:11.278Z,55.16
2023-10-31T15:08:38.765Z,55.38
2023-10-31T15:11:06.387Z,55.51
2023-10-31T15:13:35.185Z,55.51
2023-10-31T15:16:03.147Z,55.64
2023-10-31T15:18:32.895Z,55.69
2023-10-31T15:21:01.565Z,55.69
2023-10-31T15:23:31.397Z,55.82
2023-10-31T15:25:59.204Z,55.94
2023-10-31T15:28:27.620Z,56.14
2023-10-31T15:30:55.282Z,56.16
2023-10-31T15:33:22.919Z,56.28
2023-10-31T15:35:51.855Z,56.36
2023-10-31T15:38:22.543Z,56.46
2023-10-31T15:40:51.442Z,56.64
2023-10-31T15:43:20.174Z,56.63
2023-10-31T15:45:48.146Z,56.83
2023-10-31T15:48:15.632Z,56.88
2023-10-31T15:50:45.191Z,57.08
2023-10-31T15:53:13.190Z,57.23
2023-10-31T15:55:41.156Z,57.10
2023-10-31T15:58:09.104Z,57.39
2023-10-31T16:00:36.767Z,57.41
2023-10-31T16:03:06.931Z,57.44
2023-10-31T16:05:35.352Z,57.43
2023-10-31T16:08:05.800Z,57.55
2023-10-31T16:10:33.825Z,57.51
2023-10-31T16:13:01.433Z,57.57
2023-10-31T16:15:29.038Z,57.68
2023-10-31T16:17:57.405Z,57.74
2023-10-31T16:20:25.323Z,57.68
2023-10-31T16:22:52.965Z,57.83
2023-10-31T16:25:20.565Z,58.03
2023-10-31T16:27:48.266Z,57.85
2023-10-31T16:30:16.639Z,57.91
2023-10-31T16:32:44.692Z,58.04
2023-10-31T16:35:12.288Z,58.18
2023-10-31T16:37:40.236Z,58.19
2023-10-31T16:40:09.288Z,58.23
2023-10-31T16:42:37.255Z,58.19
2023-10-31T16:45:07.221Z,58.43
2023-10-31T16:47:34.902Z,58.54
2023-10-31T16:50:03.750Z,58.48
2023-10-31T16:52:31.542Z,58.67
2023-10-31T16:54:59.511Z,58.76
2023-10-31T16:57:27.346Z,58.90
2023-10-31T17:01:40.938Z,59.00
2023-10-31T17:04:09.053Z,59.23
2023-10-31T17:06:36.846Z,59.29
2023-10-31T17:09:05.329Z,59.40
2023-10-31T17:11:32.992Z,59.73
2023-10-31T17:14:00.846Z,59.79
2023-10-31T17:16:28.472Z,59.70
2023-10-31T17:18:56.339Z,59.96
2023-10-31T17:21:24.449Z,60.13
2023-10-31T17:23:52.017Z,60.36
2023-10-31T17:26:19.670Z,60.74
2023-10-31T17:28:49.037Z,60.86
2023-10-31T17:31:17.649Z,61.02
2023-10-31T17:33:47.385Z,61.43
2023-10-31T17:36:15.523Z,61.50
2023-10-31T17:38:45.587Z,61.76
2023-10-31T17:41:13.432Z,62.15
2023-10-31T17:43:41.102Z,62.41
2023-10-31T17:46:08.548Z,62.93
2023-10-31T17:48:36.136Z,63.15
2023-10-31T17:51:04.777Z,63.85
2023-10-31T17:53:32.279Z,64.11
2023-10-31T17:56:00.418Z,64.41
2023-10-31T17:58:29.231Z,64.50
2023-10-31T18:00:57.901Z,65.06
2023-10-31T18:03:25.553Z,65.81
2023-10-31T18:05:53.095Z,66.05
2023-10-31T18:08:20.952Z,66.32
2023-10-31T18:10:48.546Z,67.19
2023-10-31T18:13:16.129Z,67.96
2023-10-31T18:15:43.856Z,68.21
2023-10-31T18:18:11.490Z,68.43
2023-10-31T18:20:39.341Z,68.62
2023-10-31T18:23:06.869Z,69.32
2023-10-31T18:25:34.304Z,69.59
2023-10-31T18:28:02.136Z,70.16
2023-10-31T18:30:29.888Z,70.19
2023-10-31T18:33:04.372Z,70.30
2023-10-31T18:35:33.179Z,70.64
2023-10-31T18:38:00.568Z,71.22
2023-10-31T18:40:28.627Z,71.60
2023-10-31T18:42:56.204Z,71.63
2023-10-31T18:45:24.880Z,72.42
2023-10-31T18:47:52.457Z,72.78
2023-10-31T18:50:20.089Z,72.92
2023-10-31T18:52:47.782Z,73.43
2023-10-31T18:55:15.377Z,73.66
2023-10-31T18:57:59.603Z,73.89
2023-10-31T19:00:27.605Z,74.25
2023-10-31T19:02:56.465Z,74.23
2023-10-31T19:05:26.123Z,74.61
2023-10-31T19:07:54.020Z,74.93
2023-10-31T19:10:23.227Z,75.44
2023-10-31T19:12:50.756Z,75.89
2023-10-31T19:15:20.062Z,75.98
2023-10-31T19:17:47.970Z,76.43
2023-10-31T19:20:15.772Z,76.90
2023-10-31T19:22:46.310Z,77.00
2023-10-31T19:25:13.938Z,77.09
2023-10-31T19:27:41.562Z,77.77
2023-10-31T19:30:09.869Z,78.10
2023-10-31T19:32:37.863Z,78.06
2023-10-31T19:35:06.415Z,78.30
2023-10-31T19:37:34.170Z,78.73
2023-10-31T19:40:05.297Z,79.35
2023-10-31T19:42:33.061Z,79.34
2023-10-31T19:45:01.605Z,79.37
2023-10-31T19:47:29.440Z,79.62
2023-10-31T19:49:57.509Z,79.72
2023-10-31T19:52:25.001Z,79.88
2023-10-31T19:54:52.496Z,80.01
2023-10-31T19:57:21.168Z,80.61
2023-10-31T19:59:48.632Z,80.58
2023-10-31T20:02:16.238Z,80.86
2023-10-31T20:04:44.899Z,80.75
2023-10-31T20:07:12.515Z,81.38
2023-10-31T20:09:40.056Z,81.55
2023-10-31T20:12:08.778Z,81.87
2023-10-31T20:14:59.340Z,81.96
2023-10-31T20:17:27.978Z,82.38
2023-10-31T20:19:55.597Z,82.55
2023-10-31T20:22:23.090Z,82.99
2023-10-31T20:24:51.055Z,82.81
2023-10-31T20:27:18.446Z,83.12
2023-10-31T20:29:45.931Z,83.62
2023-10-31T20:32:14.287Z,83.81
2023-10-31T20:34:41.799Z,84.09
2023-10-31T20:37:09.315Z,84.01
2023-10-31T20:39:36.800Z,84.79
2023-10-31T20:42:04.458Z,85.01
2023-10-31T20:44:32.356Z,85.41
2023-10-31T20:46:59.901Z,85.43
2023-10-31T20:49:27.622Z,86.03
2023-10-31T20:51:55.113Z,85.79
2023-10-31T20:54:22.618Z,86.13
2023-10-31T20:56:50.131Z,86.42
2023-10-31T20:59:19.100Z,86.65
2023-10-31T21:01:46.937Z,86.89
2023-10-31T21:04:14.442Z,86.56
2023-10-31T21:06:41.993Z,87.06
2023-10-31T21:09:11.151Z,87.31
2023-10-31T21:11:38.660Z,87.28
2023-10-31T21:14:06.157Z,87.17
2023-10-31T21:16:34.022Z,87.34
2023-10-31T21:19:02.101Z,87.52
2023-10-31T21:21:32.485Z,87.38
2023-10-31T21:24:01.570Z,87.43
2023-10-31T21:26:29.096Z,87.91
2023-10-31T21:28:56.899Z,88.05
2023-10-31T21:31:24.771Z,87.86
2023-10-31T21:33:52.241Z,88.36
2023-10-31T21:36:19.710Z,88.53
2023-10-31T21:38:47.211Z,88.35
2023-10-31T21:41:15.704Z,88.82
2023-10-31T21:43:43.224Z,88.81
2023-10-31T21:46:10.840Z,88.92
2023-10-31T21:48:38.408Z,89.05
2023-10-31T21:51:06.070Z,89.42
2023-10-31T21:53:33.649Z,89.93
2023-10-31T21:56:01.246Z,90.13
2023-10-31T21:58:28.692Z,90.03
2023-10-31T22:00:57.732Z,90.42
2023-10-31T22:03:25.247Z,90.62
2023-10-31T22:05:53.152Z,90.97
2023-10-31T22:08:21.960Z,90.99
2023-10-31T22:10:49.962Z,91.10
2023-10-31T22:13:17.370Z,91.20
2023-10-31T22:15:44.890Z,91.94
2023-10-31T22:18:14.346Z,91.83
2023-10-31T22:20:43.191Z,92.06
2023-10-31T22:23:10.665Z,92.86
2023-10-31T22:25:38.200Z,92.67
2023-10-31T22:28:05.630Z,92.73
2023-10-31T22:30:33.090Z,92.92
2023-10-31T22:33:00.747Z,92.94
2023-10-31T22:35:28.204Z,93.05
2023-10-31T22:37:56.864Z,93.40
2023-10-31T22:40:24.524Z,93.40
2023-10-31T22:42:52.431Z,94.05
2023-10-31T22:45:19.967Z,94.21
2023-10-31T22:47:47.510Z,94.23
2023-10-31T22:50:15.049Z,94.35
2023-10-31T22:52:42.527Z,94.58
2023-10-31T22:55:10.060Z,94.34
2023-10-31T22:57:37.659Z,94.15
2023-10-31T23:00:11.447Z,94.72
2023-10-31T23:02:39.020Z,94.80
2023-10-31T23:05:08.876Z,94.64
2023-10-31T23:07:36.331Z,94.71
2023-10-31T23:10:04.094Z,95.18
2023-10-31T23:12:31.871Z,95.33
2023-10-31T23:15:00.104Z,95.29
2023-10-31T23:17:27.842Z,95.38
2023-10-31T23:19:57.728Z,95.96
2023-10-31T23:22:25.171Z,96.13
2023-10-31T23:24:52.610Z,95.96
2023-10-31T23:27:20.053Z,96.26
2023-10-31T23:29:48.114Z,96.60
2023-10-31T23:32:15.593Z,96.68
2023-10-31T23:34:43.072Z,96.48
2023-10-31T23:37:10.527Z,96.52
2023-10-31T23:39:38.306Z,96.65
2023-10-31T23:42:05.765Z,96.83
2023-10-31T23:44:33.342Z,96.75
2023-10-31T23:47:00.759Z,96.67
2023-10-31T23:49:28.235Z,96.87
2023-10-31T23:51:55.699Z,97.07
2023-10-31T23:54:23.157Z,97.31
2023-10-31T23:56:50.592Z,97.17
2023-10-31T23:59:18.119Z,96.91
